Terminal Aerodrome Forecast
Issued by NWS Cleveland, OH

Home | Current Version | Previous Version | Graphics & Text | Print | Product List | Glossary On
Versions: 1 2 3 4 5 6 7 8 9 10 11 12 13 14 15 16 17 18 19 20 21 22 23 24 25 26 27
609
FTUS41 KCLE 091602 AAB
TAFCLE
TAF AMD
KCLE 091602Z 0916/1018 25010KT P6SM OVC015
     FM091700 26012G18KT 6SM -SN OVC012
      TEMPO 0917/0918 2SM -SN OVC008
     FM091800 27012G18KT 2SM -SN OVC008
      TEMPO 0918/0922 3/4SM -SN BR OVC006
     FM092200 27012G20KT 6SM -SN OVC015
     FM100200 28014G22KT 4SM -SN SCT006 OVC012
     FM101300 28012G20KT 2SM -SN BR OVC006=

USA.gov is the U.S. government's official web portal to all federal, state and local government web resources and services.